Time;durP1;ratioP1;P1;durP2;ratioP2;P2;SDS_P1;SDS_P2;PMS_P1;PMS_P2;Temp;Humidity;BMP_temperature;BMP_pressure;BME280_temperature;BME280_humidity;BME280_pressure;Samples;Min_cycle;Max_cycle;Signal;HPM_P1;HPM_P2
2022/11/18 00:25:28;;;;;;;14.87;10.60;;;;;;;-2.74;90.91;98652.30;1845675;75;26415;-76
2022/11/18 00:27:55;;;;;;;13.70;11.17;;;;;;;-2.70;90.83;98654.86;1821670;77;20984;-74
2022/11/18 00:30:22;;;;;;;11.80;10.23;;;;;;;-2.61;90.56;98660.78;1826625;77;22387;-73
2022/11/18 00:32:48;;;;;;;11.77;10.13;;;;;;;-2.53;90.06;98659.31;1829066;77;20921;-77
2022/11/18 00:35:15;;;;;;;11.60;9.10;;;;;;;-2.48;89.74;98663.51;1854467;77;21703;-75
2022/11/18 00:37:42;;;;;;;12.03;10.40;;;;;;;-2.39;89.04;98665.80;1859187;77;20941;-72
2022/11/18 00:40:10;;;;;;;9.87;8.97;;;;;;;-2.40;88.37;98656.27;1793010;77;21026;-74
2022/11/18 00:42:55;;;;;;;17.43;9.33;;;;;;;-2.31;88.55;98659.59;1791368;80;21979;-72
2022/11/18 00:45:19;;;;;;;14.30;11.70;;;;;;;-2.23;88.42;98658.93;1819080;77;21001;-72
2022/11/18 00:47:46;;;;;;;11.23;10.03;;;;;;;-2.16;87.76;98662.12;1821965;78;21007;-69
2022/11/18 00:50:12;;;;;;;11.97;9.13;;;;;;;-2.20;87.22;98653.77;1821629;77;20972;-71
2022/11/18 00:52:40;;;;;;;13.90;10.57;;;;;;;-2.22;87.09;98655.30;1824378;78;21007;-70
2022/11/18 00:55:08;;;;;;;11.90;10.70;;;;;;;-2.25;86.33;98664.88;1822456;78;21618;-76
2022/11/18 00:57:38;;;;;;;10.23;9.23;;;;;;;-2.27;86.55;98659.52;1825478;78;20987;-81
2022/11/18 01:00:06;;;;;;;10.93;8.93;;;;;;;-2.23;86.64;98665.52;1825558;78;20963;-79
2022/11/18 01:02:36;;;;;;;16.70;9.27;;;;;;;-2.21;86.17;98669.28;1792459;78;20960;-77
2022/11/18 01:05:04;;;;;;;11.40;9.07;;;;;;;-2.25;86.05;98658.30;1822480;78;21023;-68
2022/11/18 01:07:30;;;;;;;11.43;9.00;;;;;;;-2.28;85.54;98657.38;1825500;78;21088;-69
2022/11/18 01:09:57;;;;;;;20.27;11.10;;;;;;;-2.29;85.44;98661.02;1812629;77;20938;-67
2022/11/18 01:15:10;;;;;;;11.40;10.17;;;;;;;-2.20;85.84;98656.40;1792142;80;21335;-67
2022/11/18 01:17:38;;;;;;;11.03;9.23;;;;;;;-2.10;85.48;98665.27;1792935;80;20933;-68
2022/11/18 01:20:07;;;;;;;10.87;9.43;;;;;;;-2.08;85.27;98661.95;1789625;80;21041;-71
2022/11/18 01:22:35;;;;;;;11.97;10.03;;;;;;;-2.13;85.03;98666.98;1761439;80;20927;-70
2022/11/18 01:25:03;;;;;;;12.30;11.00;;;;;;;-2.20;85.28;98661.67;1805861;78;20999;-70
2022/11/18 01:27:31;;;;;;;13.27;9.93;;;;;;;-2.24;85.62;98664.38;1800622;78;21558;-69
2022/11/18 01:29:58;;;;;;;10.33;9.23;;;;;;;-2.27;85.88;98664.78;1798595;78;21023;-69
2022/11/18 01:32:24;;;;;;;13.03;9.20;;;;;;;-2.23;85.86;98667.33;1800180;78;21764;-68
2022/11/18 01:34:52;;;;;;;10.87;9.63;;;;;;;-2.16;85.75;98663.44;1800018;78;21027;-72
2022/11/18 01:37:20;;;;;;;12.33;8.33;;;;;;;-2.12;85.78;98665.98;1800644;78;21503;-69
2022/11/18 01:39:46;;;;;;;10.53;9.47;;;;;;;-2.09;85.33;98659.81;1797324;79;21563;-73
2022/11/18 01:42:15;;;;;;;10.53;9.47;;;;;;;-2.18;85.32;98660.17;1799716;78;21520;-73
2022/11/18 01:45:08;;;;;;;11.53;9.13;;;;;;;-2.23;85.59;98658.93;1795428;78;21010;-74
2022/11/18 01:47:46;;;;;;;11.80;9.00;;;;;;;-2.22;85.59;98660.56;1801011;79;21507;-76
2022/11/18 01:50:14;;;;;;;10.93;9.83;;;;;;;-2.15;85.46;98666.35;1797590;78;21101;-75
2022/11/18 01:52:42;;;;;;;9.67;8.67;;;;;;;-2.13;85.42;98662.53;1794790;78;21011;-76
2022/11/18 01:55:17;;;;;;;10.60;8.83;;;;;;;-2.10;85.32;98662.14;1794993;78;21415;-78
2022/11/18 01:57:45;;;;;;;11.37;8.83;;;;;;;-2.05;85.12;98661.05;1800757;78;21152;-77
2022/11/18 02:00:13;;;;;;;10.97;9.00;;;;;;;-2.05;84.85;98661.55;1794930;78;21575;-77
2022/11/18 02:02:43;;;;;;;10.27;7.57;;;;;;;-2.09;84.50;98667.72;1769404;78;20943;-71
2022/11/18 02:05:10;;;;;;;12.73;8.63;;;;;;;-2.11;84.32;98672.36;1788254;78;21574;-71
2022/11/18 02:07:40;;;;;;;9.47;8.43;;;;;;;-2.16;84.47;98672.65;1799190;78;21066;-72
2022/11/18 02:10:08;;;;;;;10.20;8.47;;;;;;;-2.12;84.87;98668.62;1801818;79;21876;-70
2022/11/18 02:12:35;;;;;;;10.20;8.20;;;;;;;-2.10;84.89;98673.98;1771743;79;21061;-73
2022/11/18 02:15:04;;;;;;;11.30;9.00;;;;;;;-2.05;84.86;98672.09;1795000;79;20960;-74
2022/11/18 02:17:58;;;;;;;11.97;8.73;;;;;;;-2.04;84.65;98671.91;1798150;78;21117;-76
2022/11/18 02:20:33;;;;;;;10.43;9.00;;;;;;;-2.04;84.91;98670.59;1802582;78;21007;-72
2022/11/18 02:23:32;;;;;;;9.97;8.50;;;;;;;-2.08;84.58;98676.44;1774252;79;21852;-71
2022/11/18 02:26:04;;;;;;;10.87;9.03;;;;;;;-2.10;84.93;98673.98;1774678;79;20972;-71
2022/11/18 02:28:53;;;;;;;14.93;9.28;;;;;;;-2.08;85.07;98675.94;1774442;80;20964;-71
2022/11/18 02:31:27;;;;;;;13.17;9.20;;;;;;;-2.01;85.26;98675.45;1754861;81;21620;-70
2022/11/18 02:34:08;;;;;;;13.53;11.37;;;;;;;-1.95;85.21;98679.95;1764509;80;21015;-70
2022/11/18 02:36:41;;;;;;;12.90;10.20;;;;;;;-1.93;85.15;98679.77;1778209;80;21660;-71
2022/11/18 02:39:13;;;;;;;12.63;9.53;;;;;;;-2.01;85.13;98678.59;1760535;80;21001;-68
2022/11/18 02:41:40;;;;;;;9.60;8.40;;;;;;;-2.03;85.56;98679.30;1738393;80;21028;-70
2022/11/18 02:44:12;;;;;;;9.83;8.13;;;;;;;-2.01;85.62;98677.27;1768683;80;20924;-72
2022/11/18 02:46:38;;;;;;;11.33;8.90;;;;;;;-2.07;85.66;98677.57;1770618;80;21059;-66
2022/11/18 02:49:10;;;;;;;9.63;7.43;;;;;;;-2.12;85.97;98681.79;1762436;80;21093;-69
2022/11/18 02:51:37;;;;;;;11.20;8.80;;;;;;;-2.08;86.34;98683.84;1743935;80;20936;-70
2022/11/18 02:54:06;;;;;;;11.10;8.87;;;;;;;-2.08;86.44;98684.34;1771995;80;21019;-75
2022/11/18 02:56:34;;;;;;;14.27;10.33;;;;;;;-2.03;86.66;98684.58;1766816;80;21619;-69
2022/11/18 02:59:01;;;;;;;9.33;8.43;;;;;;;-2.01;86.53;98679.91;1751777;80;20992;-70
2022/11/18 03:01:29;;;;;;;10.17;8.60;;;;;;;-2.03;86.65;98680.63;1777324;80;21130;-75
2022/11/18 03:03:56;;;;;;;9.20;7.57;;;;;;;-2.01;86.81;98683.86;1734849;81;21084;-75
2022/11/18 03:06:38;;;;;;;10.37;8.13;;;;;;;-2.04;86.63;98689.03;1759535;80;21002;-75
2022/11/18 03:09:28;;;;;;;10.47;7.97;;;;;;;-2.06;86.79;98686.29;1773198;79;21127;-72
2022/11/18 03:12:17;;;;;;;10.23;9.17;;;;;;;-2.06;86.94;98695.51;1754535;81;21045;-72
2022/11/18 03:15:24;;;;;;;11.00;9.13;;;;;;;-2.15;86.87;98697.95;1746885;81;20963;-76
2022/11/18 03:18:15;;;;;;;8.67;7.73;;;;;;;-2.19;87.23;98688.31;1752619;80;21201;-77
2022/11/18 03:21:01;;;;;;;12.97;9.53;;;;;;;-2.23;87.23;98697.11;1761543;80;20947;-77
2022/11/18 03:23:36;;;;;;;9.17;8.13;;;;;;;-2.23;87.51;98693.66;1761368;80;21465;-77
2022/11/18 03:26:18;;;;;;;9.17;7.73;;;;;;;-2.11;87.83;98694.74;1777592;79;21068;-76
2022/11/18 03:28:50;;;;;;;10.00;7.83;;;;;;;-2.04;87.65;98699.56;1788770;78;21044;-74
2022/11/18 03:31:24;;;;;;;17.07;10.30;;;;;;;-2.02;87.17;98696.24;1761196;81;21512;-73
2022/11/18 03:33:55;;;;;;;11.37;8.90;;;;;;;-2.01;86.90;98692.58;1784294;80;21366;-74
2022/11/18 03:36:23;;;;;;;14.33;10.53;;;;;;;-2.00;86.39;98690.26;1787352;78;20964;-74
2022/11/18 03:38:53;;;;;;;10.70;9.60;;;;;;;-1.93;86.17;98691.13;1782186;78;21607;-73
2022/11/18 03:41:20;;;;;;;10.40;8.97;;;;;;;-1.90;85.35;98684.14;1781744;78;21221;-73
2022/11/18 03:43:57;;;;;;;9.63;7.10;;;;;;;-1.87;85.02;98683.73;1790884;78;21698;-73
2022/11/18 03:46:28;;;;;;;8.77;7.87;;;;;;;-1.84;84.50;98686.00;1791558;80;21039;-75
2022/11/18 03:48:55;;;;;;;10.57;7.13;;;;;;;-1.83;83.96;98694.72;1792311;78;20963;-76
2022/11/18 03:51:34;;;;;;;9.97;8.43;;;;;;;-1.82;83.80;98701.59;1790736;78;21031;-75
2022/11/18 03:54:29;;;;;;;9.40;7.53;;;;;;;-1.87;83.01;98706.13;1790580;78;21151;-76
2022/11/18 03:57:00;;;;;;;10.63;8.53;;;;;;;-1.84;83.23;98707.08;1791672;80;21043;-76
2022/11/18 03:59:31;;;;;;;8.10;7.30;;;;;;;-1.90;82.40;98713.12;1792544;80;20986;-75
2022/11/18 04:02:16;;;;;;;9.63;7.60;;;;;;;-1.88;82.57;98715.57;1789518;78;20960;-75
2022/11/18 04:04:44;;;;;;;7.90;7.20;;;;;;;-1.86;82.58;98714.85;1790531;79;21078;-74
2022/11/18 04:07:42;;;;;;;8.83;6.33;;;;;;;-1.82;82.27;98713.45;1791545;80;21118;-75
2022/11/18 04:10:17;;;;;;;8.33;6.83;;;;;;;-1.86;82.15;98716.98;1791833;80;21058;-74
2022/11/18 04:12:52;;;;;;;7.10;6.40;;;;;;;-1.92;81.94;98718.28;1780140;79;20972;-75
2022/11/18 04:15:19;;;;;;;10.73;7.47;;;;;;;-1.96;82.08;98724.92;1786393;80;21043;-74
2022/11/18 04:17:46;;;;;;;8.10;7.03;;;;;;;-1.99;82.09;98723.50;1792262;80;21035;-75
2022/11/18 04:20:18;;;;;;;8.17;7.20;;;;;;;-2.01;82.14;98718.10;1790601;78;21078;-75
2022/11/18 04:22:46;;;;;;;7.73;6.80;;;;;;;-2.04;82.06;98722.45;1758749;80;21014;-74
2022/11/18 04:25:12;;;;;;;8.07;6.40;;;;;;;-1.97;82.51;98733.86;1791252;79;20990;-74
2022/11/18 04:27:39;;;;;;;9.40;7.17;;;;;;;-1.98;82.40;98722.50;1761967;80;21536;-74
2022/11/18 04:30:07;;;;;;;10.03;8.57;;;;;;;-2.00;82.61;98723.69;1791938;80;22281;-76
2022/11/18 04:32:34;;;;;;;11.73;7.87;;;;;;;-1.96;82.87;98715.70;1790041;78;21033;-74
2022/11/18 04:35:01;;;;;;;9.30;7.07;;;;;;;-1.93;82.80;98721.92;1791733;80;20991;-74
2022/11/18 04:37:28;;;;;;;7.87;7.17;;;;;;;-1.90;82.91;98715.75;1790251;80;20976;-73
2022/11/18 04:39:55;;;;;;;9.50;8.50;;;;;;;-1.87;82.82;98716.67;1788991;80;20968;-75
2022/11/18 04:42:21;;;;;;;11.93;8.87;;;;;;;-1.93;82.84;98719.28;1758969;79;21040;-75
2022/11/18 04:44:48;;;;;;;14.00;12.57;;;;;;;-1.99;82.89;98722.19;1789266;80;22451;-73
2022/11/18 04:47:14;;;;;;;11.90;9.70;;;;;;;-2.02;83.10;98729.17;1761310;79;22145;-73
2022/11/18 04:49:41;;;;;;;14.73;8.57;;;;;;;-2.00;83.20;98731.09;1772646;78;20983;-72
2022/11/18 04:52:09;;;;;;;12.00;8.70;;;;;;;-2.05;83.15;98730.85;1790809;78;21515;-72
2022/11/18 04:54:35;;;;;;;10.10;8.30;;;;;;;-2.06;82.86;98742.92;1791723;80;21020;-72
2022/11/18 06:05:05;;;;;;;22.33;13.33;;;;;;;-2.57;83.37;98802.83;1834703;78;22661;-71
2022/11/18 06:07:38;;;;;;;17.40;12.63;;;;;;;-2.55;83.24;98806.92;1777679;80;20932;-73
2022/11/18 06:10:06;;;;;;;23.23;15.93;;;;;;;-2.49;82.98;98815.36;1785243;79;21799;-73
2022/11/18 06:12:38;;;;;;;14.90;12.17;;;;;;;-2.37;82.89;98815.69;1744209;80;20932;-72
2022/11/18 06:15:15;;;;;;;14.13;11.40;;;;;;;-2.30;82.45;98806.83;1774909;79;21189;-76
2022/11/18 06:18:07;;;;;;;12.90;10.27;;;;;;;-2.26;81.93;98809.92;1782705;79;21516;-77
2022/11/18 06:20:36;;;;;;;12.07;10.33;;;;;;;-2.26;81.44;98822.59;1781020;80;20949;-74
2022/11/18 06:23:03;;;;;;;13.63;10.90;;;;;;;-2.20;81.49;98824.94;1781424;79;21112;-75
2022/11/18 06:25:30;;;;;;;14.50;12.13;;;;;;;-2.06;81.81;98827.21;1796339;79;20955;-75
2022/11/18 06:27:59;;;;;;;9.87;8.87;;;;;;;-1.97;81.45;98824.75;1802691;78;20971;-73
2022/11/18 06:30:25;;;;;;;45.87;14.00;;;;;;;-1.98;80.94;98827.06;1775130;80;20959;-74
2022/11/18 06:32:53;;;;;;;16.30;11.07;;;;;;;-2.01;80.90;98826.11;1743643;80;21003;-69
2022/11/18 06:35:19;;;;;;;18.37;14.77;;;;;;;-2.03;80.81;98830.27;1786231;79;21188;-74
2022/11/18 06:37:46;;;;;;;16.67;12.13;;;;;;;-2.06;80.59;98826.67;1812435;78;20999;-73
2022/11/18 06:40:15;;;;;;;17.23;12.07;;;;;;;-2.03;80.48;98823.69;1775473;80;21022;-74
2022/11/18 06:45:28;;;;;;;13.07;11.20;;;;;;;-1.95;79.80;98831.44;1772727;81;21037;-75
2022/11/18 06:48:03;;;;;;;18.07;12.70;;;;;;;-1.91;79.70;98832.68;1718432;79;21953;-72
2022/11/18 06:50:29;;;;;;;20.83;16.40;;;;;;;-1.90;78.10;98844.86;1781399;80;20979;-75
2022/11/18 06:53:14;;;;;;;25.20;15.90;;;;;;;-1.99;78.25;98845.19;1787788;79;21409;-75
2022/11/18 06:55:40;;;;;;;16.47;13.80;;;;;;;-1.97;78.84;98845.83;1797331;79;21010;-77
2022/11/18 06:58:07;;;;;;;22.53;14.40;;;;;;;-1.93;78.15;98846.57;1796470;79;21654;-76
2022/11/18 07:00:35;;;;;;;17.10;12.13;;;;;;;-1.96;77.54;98849.56;1797722;79;21543;-78
2022/11/18 07:03:01;;;;;;;19.50;14.93;;;;;;;-1.99;77.61;98842.55;1781695;79;21010;-77
2022/11/18 07:05:28;;;;;;;22.47;14.80;;;;;;;-1.99;77.62;98847.81;1766110;81;21057;-75
2022/11/18 07:07:55;;;;;;;19.93;15.30;;;;;;;-1.98;77.75;98856.05;1765962;81;21575;-77
2022/11/18 07:10:21;;;;;;;19.77;13.87;;;;;;;-1.95;77.65;98855.16;1768586;79;21038;-76
2022/11/18 07:12:48;;;;;;;17.77;11.63;;;;;;;-1.92;77.45;98856.61;1774537;79;21013;-78
2022/11/18 07:15:15;;;;;;;15.77;11.60;;;;;;;-1.95;77.45;98853.83;1765903;81;21002;-78
2022/11/18 07:17:43;;;;;;;13.03;10.03;;;;;;;-1.86;77.67;98849.23;1735932;81;21492;-76
2022/11/18 07:20:10;;;;;;;16.53;12.43;;;;;;;-1.76;77.43;98855.81;1766270;79;21006;-78
2022/11/18 07:22:37;;;;;;;17.80;11.13;;;;;;;-1.72;76.98;98863.32;1780283;79;21023;-77
2022/11/18 07:25:05;;;;;;;23.37;13.63;;;;;;;-1.73;76.70;98857.77;1772756;79;21028;-77
2022/11/18 07:27:33;;;;;;;13.67;10.70;;;;;;;-1.74;76.62;98859.58;1736425;81;21500;-78
2022/11/18 07:30:00;;;;;;;16.87;12.33;;;;;;;-1.78;76.16;98861.80;1756516;79;21487;-78
2022/11/18 07:32:26;;;;;;;19.93;13.97;;;;;;;-1.76;76.25;98854.99;1746636;82;21537;-78
2022/11/18 07:34:53;;;;;;;36.13;26.07;;;;;;;-1.69;76.50;98863.77;1779792;79;21445;-78
2022/11/18 07:37:20;;;;;;;25.03;15.93;;;;;;;-1.63;76.48;98869.58;1796876;79;21007;-76
2022/11/18 07:39:47;;;;;;;25.87;16.03;;;;;;;-1.51;76.62;98873.33;1777189;79;20999;-74
2022/11/18 07:42:13;;;;;;;24.47;15.60;;;;;;;-1.49;76.37;98875.78;1774249;79;21465;-75
2022/11/18 07:44:40;;;;;;;18.60;14.07;;;;;;;-1.51;76.38;98872.01;1786189;79;21007;-74
2022/11/18 07:47:09;;;;;;;23.20;15.43;;;;;;;-1.55;76.02;98877.86;1796864;79;21052;-74
2022/11/18 07:49:36;;;;;;;19.50;12.70;;;;;;;-1.57;76.25;98879.36;1786573;79;21955;-74
2022/11/18 07:52:03;;;;;;;14.60;11.70;;;;;;;-1.54;76.15;98874.22;1765303;81;21626;-75
2022/11/18 07:54:29;;;;;;;14.90;11.20;;;;;;;-1.52;76.21;98872.19;1769492;79;21531;-75
2022/11/18 07:56:56;;;;;;;16.97;12.43;;;;;;;-1.56;75.41;98877.05;1765290;81;20963;-75
2022/11/18 07:59:23;;;;;;;16.10;12.47;;;;;;;-1.61;74.51;98875.98;1774289;79;20995;-74
2022/11/18 08:01:50;;;;;;;17.43;13.27;;;;;;;-1.64;74.68;98875.06;1778406;79;21212;-74
2022/11/18 08:04:16;;;;;;;20.50;13.67;;;;;;;-1.70;74.21;98877.95;1757817;79;21559;-74
2022/11/18 08:06:43;;;;;;;18.63;12.00;;;;;;;-1.77;74.50;98883.16;1773557;80;21606;-77
2022/11/18 08:09:10;;;;;;;12.17;9.63;;;;;;;-1.84;74.78;98884.12;1778918;79;21027;-76
2022/11/18 08:11:37;;;;;;;13.97;12.37;;;;;;;-1.80;74.92;98886.69;1778875;79;21019;-77
2022/11/18 08:14:04;;;;;;;15.60;11.97;;;;;;;-1.71;74.97;98882.09;1774060;79;21492;-79
2022/11/18 08:16:31;;;;;;;22.17;14.00;;;;;;;-1.64;74.70;98895.65;1761810;79;20958;-76
2022/11/18 08:18:59;;;;;;;19.37;13.93;;;;;;;-1.60;74.70;98897.39;1805730;79;21467;-77
2022/11/18 08:21:27;;;;;;;15.50;11.33;;;;;;;-1.59;74.73;98906.94;1804540;79;20931;-77
2022/11/18 08:23:57;;;;;;;16.67;11.70;;;;;;;-1.59;74.88;98909.58;1774502;79;21086;-76
2022/11/18 08:26:23;;;;;;;20.27;13.97;;;;;;;-1.58;74.94;98914.63;1775009;79;21859;-79
2022/11/18 08:28:50;;;;;;;22.27;12.20;;;;;;;-1.59;75.00;98915.66;1726117;83;21537;-77
2022/11/18 08:31:23;;;;;;;14.63;10.70;;;;;;;-1.59;75.24;98918.80;1746773;81;21049;-78
2022/11/18 08:34:06;;;;;;;22.07;11.63;;;;;;;-1.54;75.47;98924.31;1714627;81;20994;-78
2022/11/18 08:39:36;;;;;;;26.80;13.70;;;;;;;-1.55;75.02;98925.31;1741183;81;21175;-77
2022/11/18 08:42:03;;;;;;;20.23;12.47;;;;;;;-1.51;75.65;98935.78;1737332;81;21015;-80
2022/11/18 08:44:32;;;;;;;19.37;12.27;;;;;;;-1.43;75.58;98936.45;1719028;83;21019;-74
2022/11/18 08:46:59;;;;;;;25.87;14.40;;;;;;;-1.43;75.51;98931.68;1735115;82;21088;-77
2022/11/18 08:49:25;;;;;;;21.70;14.73;;;;;;;-1.39;75.56;98939.02;1732399;82;21061;-69
2022/11/18 08:51:52;;;;;;;26.37;13.10;;;;;;;-1.33;75.35;98938.76;1721032;82;21253;-67
2022/11/18 08:54:19;;;;;;;24.00;16.10;;;;;;;-1.30;75.10;98944.17;1707718;83;20991;-68
2022/11/18 08:56:45;;;;;;;26.33;16.33;;;;;;;-1.29;75.10;98946.59;1732409;81;21020;-70
2022/11/18 08:59:13;;;;;;;24.33;14.87;;;;;;;-1.25;75.08;98937.81;1724039;83;21061;-71
2022/11/18 09:01:42;;;;;;;21.27;15.43;;;;;;;-1.21;75.41;98940.38;1729502;81;21019;-69
2022/11/18 09:04:09;;;;;;;24.03;16.13;;;;;;;-1.18;75.19;98930.24;1726561;81;22013;-69
2022/11/18 09:06:37;;;;;;;35.83;17.47;;;;;;;-1.16;75.24;98935.33;1723090;82;21034;-70
2022/11/18 09:09:04;;;;;;;21.43;15.73;;;;;;;-1.15;75.44;98935.66;1747200;81;20963;-84
2022/11/18 09:11:33;;;;;;;30.77;17.27;;;;;;;-1.09;75.49;98940.95;1718878;82;20948;-73
2022/11/18 09:14:00;;;;;;;24.03;15.73;;;;;;;-1.13;75.24;98940.21;1728701;81;21043;-75
2022/11/18 09:16:28;;;;;;;24.83;15.20;;;;;;;-1.14;75.46;98942.03;1732341;81;21528;-73
2022/11/18 09:18:55;;;;;;;20.80;13.90;;;;;;;-1.12;75.74;98939.21;1753554;81;21215;-70
2022/11/18 09:21:24;;;;;;;21.87;14.07;;;;;;;-1.11;75.50;98940.84;1744737;81;21003;-69
2022/11/18 09:23:52;;;;;;;18.93;13.90;;;;;;;-1.12;75.71;98938.71;1750304;81;21024;-68
2022/11/18 09:26:21;;;;;;;18.87;12.87;;;;;;;-1.09;75.91;98931.72;1735102;81;21116;-67
2022/11/18 09:28:54;;;;;;;17.70;13.40;;;;;;;-1.02;75.95;98944.46;1728987;81;21226;-67
2022/11/18 09:31:20;;;;;;;14.13;12.50;;;;;;;-0.94;75.72;98948.75;1722817;82;21020;-67
2022/11/18 09:33:47;;;;;;;13.00;11.07;;;;;;;-0.90;75.30;98944.21;1746776;81;21011;-67
2022/11/18 09:36:22;;;;;;;15.43;11.60;;;;;;;-0.90;75.25;98946.85;1734884;81;21013;-66
2022/11/18 09:38:49;;;;;;;14.50;11.40;;;;;;;-0.89;75.14;98937.11;1728947;81;21043;-71
2022/11/18 09:41:46;;;;;;;14.93;11.67;;;;;;;-0.88;75.21;98954.59;1723714;83;22202;-69
2022/11/18 09:44:36;;;;;;;14.97;11.37;;;;;;;-0.84;74.98;98953.18;1748857;81;20979;-68
2022/11/18 09:47:21;;;;;;;19.43;11.40;;;;;;;-0.73;75.04;98961.88;1753409;81;21032;-68
2022/11/18 09:49:48;;;;;;;12.97;11.27;;;;;;;-0.66;74.81;98960.07;1752358;81;21554;-66
2022/11/18 09:52:25;;;;;;;14.70;12.50;;;;;;;-0.68;74.52;98952.88;1723759;82;21513;-72
2022/11/18 09:54:51;;;;;;;17.87;11.93;;;;;;;-0.66;74.58;98959.25;1706599;82;21267;-71
2022/11/18 09:57:40;;;;;;;14.03;12.03;;;;;;;-0.66;74.39;98960.57;1722838;83;20972;-74
2022/11/18 10:00:16;;;;;;;16.03;11.27;;;;;;;-0.69;74.64;98965.75;1723115;83;21063;-73
2022/11/18 10:03:06;;;;;;;10.53;8.93;;;;;;;-0.66;75.09;98960.07;1713468;82;20990;-69
2022/11/18 10:06:03;;;;;;;9.27;8.27;;;;;;;-0.64;74.63;98958.06;1710820;82;20997;-67
2022/11/18 10:09:14;;;;;;;17.87;9.23;;;;;;;-0.70;74.62;98957.52;1796050;79;21138;-68
2022/11/18 10:11:52;;;;;;;11.47;9.03;;;;;;;-0.67;74.86;98957.12;1796004;79;21011;-69
2022/11/18 10:14:48;;;;;;;15.07;9.50;;;;;;;-0.59;74.82;98963.58;1779278;79;20963;-67
2022/11/18 10:17:53;;;;;;;8.80;7.53;;;;;;;-0.57;74.30;98963.36;1771266;79;21468;-72
2022/11/18 10:20:37;;;;;;;12.00;9.93;;;;;;;-0.55;74.36;98960.84;1774714;79;21030;-74
2022/11/18 10:23:23;;;;;;;16.90;8.27;;;;;;;-0.58;74.34;98959.11;1760436;77;21199;-65
2022/11/18 10:25:51;;;;;;;17.00;10.33;;;;;;;-0.55;74.56;98958.20;1719638;81;21040;-75
2022/11/18 10:28:30;;;;;;;9.93;8.53;;;;;;;-0.47;74.68;98946.64;1675204;84;20983;-69
2022/11/18 10:31:10;;;;;;;10.77;8.50;;;;;;;-0.47;74.51;98950.10;1713284;82;20983;-69
2022/11/18 10:33:37;;;;;;;12.50;9.03;;;;;;;-0.47;74.74;98947.46;1705445;82;21526;-68
2022/11/18 10:36:21;;;;;;;13.07;10.97;;;;;;;-0.45;74.63;98948.09;1705015;83;21367;-68
2022/11/18 10:38:47;;;;;;;16.70;11.07;;;;;;;-0.46;74.86;98946.45;1698687;83;20971;-66
2022/11/18 10:41:16;;;;;;;18.27;11.27;;;;;;;-0.50;74.92;98937.30;1706328;83;20990;-67
2022/11/18 10:43:48;;;;;;;15.17;12.27;;;;;;;-0.57;75.08;98931.16;1710935;82;21102;-67
2022/11/18 10:46:30;;;;;;;18.37;13.78;;;;;;;-0.61;75.22;98940.50;1720889;82;21123;-67
2022/11/18 10:49:15;;;;;;;13.90;10.33;;;;;;;-0.61;75.53;98944.96;1719805;82;21323;-66
2022/11/18 10:51:46;;;;;;;22.33;11.97;;;;;;;-0.63;75.39;98961.02;1717556;82;22214;-67
2022/11/18 10:54:17;;;;;;;10.75;9.33;;;;;;;-0.66;75.50;98960.57;1695140;84;20980;-65
2022/11/18 10:57:01;;;;;;;12.53;10.43;;;;;;;-0.72;75.67;98959.52;1705152;84;21126;-66
2022/11/18 10:59:42;;;;;;;16.23;11.50;;;;;;;-0.73;75.93;98959.74;1705120;83;21043;-66
2022/11/18 11:02:19;;;;;;;10.28;9.28;;;;;;;-0.68;75.98;98956.83;1707812;82;21244;-68
2022/11/18 11:04:48;;;;;;;12.93;9.50;;;;;;;-0.60;75.45;98957.16;1693547;83;21026;-66
2022/11/18 11:07:33;;;;;;;10.47;9.23;;;;;;;-0.59;75.30;98962.25;1696114;84;21100;-69
2022/11/18 11:10:09;;;;;;;14.20;9.53;;;;;;;-0.52;75.32;98956.98;1704847;82;21108;-72
2022/11/18 11:12:45;;;;;;;17.33;11.90;;;;;;;-0.49;75.03;98958.75;1708291;82;21534;-74
2022/11/18 11:15:12;;;;;;;11.43;9.90;;;;;;;-0.42;75.07;98952.66;1706282;82;21208;-71
2022/11/18 11:18:40;;;;;;;13.23;11.27;;;;;;;-0.37;74.82;98950.23;1702844;83;20962;-68
2022/11/18 11:20:22;;;;;;;15.07;11.57;;;;;;;-0.41;74.96;98948.50;1702097;82;21546;-69
2022/11/18 11:22:53;;;;;;;14.27;10.47;;;;;;;-0.49;75.37;98949.50;1728845;81;21034;-72
2022/11/18 11:25:34;;;;;;;14.57;10.33;;;;;;;-0.58;75.43;98952.00;1742563;80;21040;-70
2022/11/18 11:28:16;;;;;;;10.97;9.83;;;;;;;-0.64;75.77;98954.61;1757456;79;21962;-70
2022/11/18 11:31:10;;;;;;;15.63;11.20;;;;;;;-0.69;76.18;98965.75;1762424;80;21067;-70
2022/11/18 11:33:56;;;;;;;14.07;11.93;;;;;;;-0.69;76.45;98959.16;1756456;80;21170;-72
2022/11/18 11:36:40;;;;;;;14.13;11.90;;;;;;;-0.66;76.55;98977.23;1726745;81;21019;-76
2022/11/18 11:39:58;;;;;;;20.17;11.83;;;;;;;-0.65;76.78;98973.59;1773315;79;21659;-71
2022/11/18 11:43:06;;;;;;;13.17;11.70;;;;;;;-0.62;76.66;98971.87;1793518;79;21159;-75
2022/11/18 11:45:47;;;;;;;15.43;12.07;;;;;;;-0.61;76.50;98972.19;1715676;80;21415;-83
2022/11/18 11:48:45;;;;;;;17.47;11.73;;;;;;;-0.58;76.65;98973.13;1762982;79;21063;-75
2022/11/18 11:51:44;;;;;;;19.23;11.83;;;;;;;-0.51;76.76;98977.92;1738737;80;21035;-71
2022/11/18 11:54:25;;;;;;;13.13;11.43;;;;;;;-0.45;76.69;98995.63;1776420;79;21047;-69
2022/11/18 11:57:06;;;;;;;18.03;14.03;;;;;;;-0.51;76.60;99003.52;1780409;79;21100;-72
2022/11/18 12:00:03;;;;;;;19.57;12.30;;;;;;;-0.54;76.83;99002.09;1755633;79;20955;-73
2022/11/18 12:03:00;;;;;;;15.73;12.60;;;;;;;-0.56;76.99;99012.52;1776373;80;21868;-73
2022/11/18 12:05:38;;;;;;;14.13;9.73;;;;;;;-0.53;77.13;99012.94;1776023;80;21733;-72
2022/11/18 12:08:23;;;;;;;14.30;11.70;;;;;;;-0.55;76.85;99012.84;1808555;79;22296;-72
2022/11/18 12:11:06;;;;;;;15.93;10.37;;;;;;;-0.55;76.93;99014.98;1779372;78;21587;-73
2022/11/18 12:13:52;;;;;;;;;;;;;;;-0.49;77.13;99016.84;1787069;80;21560;-71
2022/11/18 12:16:41;;;;;;;15.17;10.77;;;;;;;-0.42;76.98;99006.30;1808867;78;20189;-71
2022/11/18 12:19:19;;;;;;;11.03;8.77;;;;;;;-0.36;76.77;99011.30;1733371;80;21357;-77
2022/11/18 12:21:53;;;;;;;15.23;9.23;;;;;;;-0.32;76.59;99018.64;1742293;82;21089;-69
2022/11/18 12:24:31;;;;;;;15.43;9.43;;;;;;;-0.34;76.07;99023.32;1733422;80;21166;-71
2022/11/18 12:27:05;;;;;;;13.70;9.27;;;;;;;-0.39;75.96;99029.70;1735870;81;21034;-72
2022/11/18 12:29:54;;;;;;;13.53;9.98;;;;;;;-0.45;75.87;99036.57;1733298;80;21022;-75
2022/11/18 12:32:41;;;;;;;13.50;9.43;;;;;;;-0.38;76.08;99026.55;1720753;82;21132;-74
2022/11/18 12:35:16;;;;;;;11.20;9.17;;;;;;;-0.42;75.93;99012.08;1740612;81;21046;-79
2022/11/18 12:37:56;;;;;;;11.53;9.78;;;;;;;-0.40;76.27;99020.14;1740112;81;22175;-75
2022/11/18 12:40:41;;;;;;;11.60;10.17;;;;;;;-0.36;76.27;99016.09;1731785;80;21086;-88
2022/11/18 12:43:46;;;;;;;15.47;11.83;;;;;;;-0.33;76.32;99018.32;1751317;80;21002;-82
2022/11/18 12:46:35;;;;;;;13.35;9.43;;;;;;;-0.36;76.46;99016.59;1735126;81;21109;-81
2022/11/18 12:49:27;;;;;;;13.65;10.85;;;;;;;-0.42;76.80;99007.62;1748098;80;21046;-76
2022/11/18 12:51:59;;;;;;;16.42;10.45;;;;;;;-0.44;76.76;99012.30;1743538;81;21639;-77
2022/11/18 12:54:37;;;;;;;12.80;9.00;;;;;;;-0.48;77.01;99018.45;1740228;82;20995;-76
2022/11/18 12:57:34;;;;;;;14.53;9.53;;;;;;;-0.48;77.03;99030.88;1745015;81;21644;-74
2022/11/18 13:00:25;;;;;;;12.50;9.40;;;;;;;-0.53;77.12;99038.03;1740619;81;21094;-66
2022/11/18 13:02:57;;;;;;;12.20;8.70;;;;;;;-0.52;77.57;99044.12;1715119;80;21537;-71
2022/11/18 13:05:30;;;;;;;10.27;8.90;;;;;;;-0.51;77.56;99057.65;1722899;82;21138;-70
2022/11/18 13:08:14;;;;;;;11.40;9.83;;;;;;;-0.53;77.68;99051.23;1739678;82;21777;-71
2022/11/18 13:11:43;;;;;;;10.20;9.10;;;;;;;-0.55;77.91;99061.69;1738778;82;21388;-74
2022/11/18 13:13:31;;;;;;;13.57;12.20;;;;;;;-0.59;78.09;99064.41;1785102;80;21031;-72
2022/11/18 13:19:06;;;;;;;18.77;10.93;;;;;;;-0.65;78.22;99053.30;1744044;81;21406;-73
2022/11/18 13:24:21;;;;;;;13.20;11.50;;;;;;;-0.60;78.56;99044.30;1721594;82;21225;-69
2022/11/18 13:26:50;;;;;;;17.67;13.63;;;;;;;-0.58;78.79;99043.11;1772795;80;21041;-70
2022/11/18 13:29:43;;;;;;;17.23;12.93;;;;;;;-0.53;78.92;99040.67;1745784;80;21500;-68
2022/11/18 13:32:26;;;;;;;13.93;10.65;;;;;;;-0.53;78.93;99040.67;1775606;80;21151;-67
2022/11/18 13:34:58;;;;;;;18.82;15.23;;;;;;;-0.55;79.04;99044.03;1767130;80;21073;-70
2022/11/18 13:37:28;;;;;;;17.07;12.85;;;;;;;-0.54;79.22;99033.78;1737287;80;21065;-69
2022/11/18 13:39:55;;;;;;;16.80;14.17;;;;;;;-0.58;79.40;99031.22;1772223;79;21555;-68